sensor_id;sensor_type;location;lat;lon;timestamp;temperature;humidity
77582;DHT22;66726;52.388;9.986;2023-06-22T00:00:29;21.40;91.80
77582;DHT22;66726;52.388;9.986;2023-06-22T00:03:00;21.30;91.60
77582;DHT22;66726;52.388;9.986;2023-06-22T00:05:32;21.30;91.60
77582;DHT22;66726;52.388;9.986;2023-06-22T00:08:05;21.20;91.90
77582;DHT22;66726;52.388;9.986;2023-06-22T00:10:37;21.20;92.00
77582;DHT22;66726;52.388;9.986;2023-06-22T00:13:10;21.10;92.10
77582;DHT22;66726;52.388;9.986;2023-06-22T00:15:43;21.10;92.40
77582;DHT22;66726;52.388;9.986;2023-06-22T00:18:15;20.80;92.80
77582;DHT22;66726;52.388;9.986;2023-06-22T00:20:47;20.80;93.30
77582;DHT22;66726;52.388;9.986;2023-06-22T00:23:19;20.90;92.70
77582;DHT22;66726;52.388;9.986;2023-06-22T00:25:52;21.00;92.40
77582;DHT22;66726;52.388;9.986;2023-06-22T00:28:24;21.00;92.30
77582;DHT22;66726;52.388;9.986;2023-06-22T00:30:58;20.90;92.40
77582;DHT22;66726;52.388;9.986;2023-06-22T00:33:30;20.80;92.60
77582;DHT22;66726;52.388;9.986;2023-06-22T00:36:02;20.80;92.60
77582;DHT22;66726;52.388;9.986;2023-06-22T00:38:34;20.70;92.80
77582;DHT22;66726;52.388;9.986;2023-06-22T00:41:08;20.60;93.00
77582;DHT22;66726;52.388;9.986;2023-06-22T00:43:40;20.80;92.90
77582;DHT22;66726;52.388;9.986;2023-06-22T00:46:13;20.90;92.70
77582;DHT22;66726;52.388;9.986;2023-06-22T00:48:45;20.80;92.60
77582;DHT22;66726;52.388;9.986;2023-06-22T00:51:17;20.70;92.80
77582;DHT22;66726;52.388;9.986;2023-06-22T00:53:52;20.60;92.80
77582;DHT22;66726;52.388;9.986;2023-06-22T00:56:25;20.70;92.90
77582;DHT22;66726;52.388;9.986;2023-06-22T00:58:58;20.50;93.20
77582;DHT22;66726;52.388;9.986;2023-06-22T01:01:33;20.50;93.30
77582;DHT22;66726;52.388;9.986;2023-06-22T01:04:09;20.50;93.40
77582;DHT22;66726;52.388;9.986;2023-06-22T01:06:49;20.30;93.60
77582;DHT22;66726;52.388;9.986;2023-06-22T01:09:34;20.40;93.50
77582;DHT22;66726;52.388;9.986;2023-06-22T01:12:13;20.30;93.60
77582;DHT22;66726;52.388;9.986;2023-06-22T01:14:53;20.40;93.60
77582;DHT22;66726;52.388;9.986;2023-06-22T01:17:33;20.40;93.50
77582;DHT22;66726;52.388;9.986;2023-06-22T01:20:11;20.30;93.70
77582;DHT22;66726;52.388;9.986;2023-06-22T01:22:55;20.10;94.00
77582;DHT22;66726;52.388;9.986;2023-06-22T01:25:38;20.20;94.00
77582;DHT22;66726;52.388;9.986;2023-06-22T01:28:34;20.10;94.10
77582;DHT22;66726;52.388;9.986;2023-06-22T01:31:13;20.20;93.90
77582;DHT22;66726;52.388;9.986;2023-06-22T01:33:46;20.20;94.00
77582;DHT22;66726;52.388;9.986;2023-06-22T01:36:22;20.10;94.00
77582;DHT22;66726;52.388;9.986;2023-06-22T01:38:55;20.10;93.90
77582;DHT22;66726;52.388;9.986;2023-06-22T01:41:29;20.10;94.20
77582;DHT22;66726;52.388;9.986;2023-06-22T01:44:07;20.00;94.40
77582;DHT22;66726;52.388;9.986;2023-06-22T01:46:40;20.00;94.40
77582;DHT22;66726;52.388;9.986;2023-06-22T01:49:14;20.10;94.30
77582;DHT22;66726;52.388;9.986;2023-06-22T01:51:47;20.00;94.30
77582;DHT22;66726;52.388;9.986;2023-06-22T01:54:19;20.00;94.30
77582;DHT22;66726;52.388;9.986;2023-06-22T01:56:51;20.00;94.20
77582;DHT22;66726;52.388;9.986;2023-06-22T01:59:28;19.90;94.20
77582;DHT22;66726;52.388;9.986;2023-06-22T02:02:07;19.90;94.30
77582;DHT22;66726;52.388;9.986;2023-06-22T02:04:46;19.80;94.30
77582;DHT22;66726;52.388;9.986;2023-06-22T02:07:23;19.90;94.50
77582;DHT22;66726;52.388;9.986;2023-06-22T02:09:58;19.90;94.40
77582;DHT22;66726;52.388;9.986;2023-06-22T02:12:33;19.90;94.50
77582;DHT22;66726;52.388;9.986;2023-06-22T02:15:09;19.90;94.40
77582;DHT22;66726;52.388;9.986;2023-06-22T02:17:42;20.00;94.30
77582;DHT22;66726;52.388;9.986;2023-06-22T02:20:14;19.90;94.40
77582;DHT22;66726;52.388;9.986;2023-06-22T02:22:46;20.00;94.40
77582;DHT22;66726;52.388;9.986;2023-06-22T02:25:18;19.90;94.50
77582;DHT22;66726;52.388;9.986;2023-06-22T02:27:50;19.90;94.50
77582;DHT22;66726;52.388;9.986;2023-06-22T02:30:23;19.90;94.60
77582;DHT22;66726;52.388;9.986;2023-06-22T02:32:56;19.80;94.70
77582;DHT22;66726;52.388;9.986;2023-06-22T02:35:29;19.70;94.90
77582;DHT22;66726;52.388;9.986;2023-06-22T02:38:04;19.70;94.90
77582;DHT22;66726;52.388;9.986;2023-06-22T02:40:36;19.80;94.80
77582;DHT22;66726;52.388;9.986;2023-06-22T02:43:08;19.70;94.80
77582;DHT22;66726;52.388;9.986;2023-06-22T02:45:41;19.70;94.90
77582;DHT22;66726;52.388;9.986;2023-06-22T02:48:13;19.70;95.00
77582;DHT22;66726;52.388;9.986;2023-06-22T02:50:45;19.70;95.10
77582;DHT22;66726;52.388;9.986;2023-06-22T02:53:17;19.70;95.20
77582;DHT22;66726;52.388;9.986;2023-06-22T02:55:49;19.70;95.30
77582;DHT22;66726;52.388;9.986;2023-06-22T02:58:21;19.60;95.30
77582;DHT22;66726;52.388;9.986;2023-06-22T03:00:55;19.70;95.30
77582;DHT22;66726;52.388;9.986;2023-06-22T03:03:33;19.70;95.30
77582;DHT22;66726;52.388;9.986;2023-06-22T03:06:05;19.70;95.30
77582;DHT22;66726;52.388;9.986;2023-06-22T03:08:42;19.60;95.50
77582;DHT22;66726;52.388;9.986;2023-06-22T03:11:14;19.50;95.40
77582;DHT22;66726;52.388;9.986;2023-06-22T03:13:46;19.60;95.60
77582;DHT22;66726;52.388;9.986;2023-06-22T03:16:19;19.50;95.50
77582;DHT22;66726;52.388;9.986;2023-06-22T03:18:51;19.50;95.70
77582;DHT22;66726;52.388;9.986;2023-06-22T03:21:27;19.50;95.70
77582;DHT22;66726;52.388;9.986;2023-06-22T03:24:00;19.50;95.70
77582;DHT22;66726;52.388;9.986;2023-06-22T03:26:32;19.50;95.80
77582;DHT22;66726;52.388;9.986;2023-06-22T03:29:04;19.40;95.70
77582;DHT22;66726;52.388;9.986;2023-06-22T03:31:37;19.50;95.80
77582;DHT22;66726;52.388;9.986;2023-06-22T03:34:09;19.50;95.80
77582;DHT22;66726;52.388;9.986;2023-06-22T03:36:41;19.50;95.80
77582;DHT22;66726;52.388;9.986;2023-06-22T03:39:14;19.40;95.80
77582;DHT22;66726;52.388;9.986;2023-06-22T03:41:46;19.50;95.90
77582;DHT22;66726;52.388;9.986;2023-06-22T03:44:18;19.50;95.80
77582;DHT22;66726;52.388;9.986;2023-06-22T03:46:51;19.40;96.10
77582;DHT22;66726;52.388;9.986;2023-06-22T03:49:23;19.40;96.10
77582;DHT22;66726;52.388;9.986;2023-06-22T03:51:54;19.40;96.00
77582;DHT22;66726;52.388;9.986;2023-06-22T03:54:40;19.40;95.90
77582;DHT22;66726;52.388;9.986;2023-06-22T03:57:12;19.50;96.10
77582;DHT22;66726;52.388;9.986;2023-06-22T03:59:44;19.50;95.90
77582;DHT22;66726;52.388;9.986;2023-06-22T04:02:17;19.50;96.20
77582;DHT22;66726;52.388;9.986;2023-06-22T04:04:49;19.40;96.30
77582;DHT22;66726;52.388;9.986;2023-06-22T04:07:21;19.50;96.20
77582;DHT22;66726;52.388;9.986;2023-06-22T04:09:53;19.50;96.20
77582;DHT22;66726;52.388;9.986;2023-06-22T04:12:24;19.40;96.40
77582;DHT22;66726;52.388;9.986;2023-06-22T04:14:56;19.40;96.50
77582;DHT22;66726;52.388;9.986;2023-06-22T04:17:30;19.40;96.60
77582;DHT22;66726;52.388;9.986;2023-06-22T04:20:01;19.40;96.70
77582;DHT22;66726;52.388;9.986;2023-06-22T04:22:33;19.40;96.20
77582;DHT22;66726;52.388;9.986;2023-06-22T04:25:06;19.50;96.30
77582;DHT22;66726;52.388;9.986;2023-06-22T04:27:39;19.60;96.40
77582;DHT22;66726;52.388;9.986;2023-06-22T04:30:12;19.60;96.40
77582;DHT22;66726;52.388;9.986;2023-06-22T04:32:47;19.60;96.40
77582;DHT22;66726;52.388;9.986;2023-06-22T04:35:26;19.60;96.50
77582;DHT22;66726;52.388;9.986;2023-06-22T04:38:00;19.60;96.50
77582;DHT22;66726;52.388;9.986;2023-06-22T04:40:32;19.60;96.70
77582;DHT22;66726;52.388;9.986;2023-06-22T04:43:04;19.60;96.90
77582;DHT22;66726;52.388;9.986;2023-06-22T04:45:35;19.60;97.00
77582;DHT22;66726;52.388;9.986;2023-06-22T04:48:09;19.60;96.70
77582;DHT22;66726;52.388;9.986;2023-06-22T04:50:44;19.70;96.60
77582;DHT22;66726;52.388;9.986;2023-06-22T04:53:16;19.60;96.70
77582;DHT22;66726;52.388;9.986;2023-06-22T04:55:48;19.60;97.00
77582;DHT22;66726;52.388;9.986;2023-06-22T04:58:21;19.60;96.80
77582;DHT22;66726;52.388;9.986;2023-06-22T05:00:57;19.60;96.70
77582;DHT22;66726;52.388;9.986;2023-06-22T05:03:30;19.70;96.50
77582;DHT22;66726;52.388;9.986;2023-06-22T05:06:02;19.70;96.80
77582;DHT22;66726;52.388;9.986;2023-06-22T05:08:33;19.70;97.10
77582;DHT22;66726;52.388;9.986;2023-06-22T05:11:06;19.70;96.80
77582;DHT22;66726;52.388;9.986;2023-06-22T05:13:37;19.70;96.80
77582;DHT22;66726;52.388;9.986;2023-06-22T05:16:09;19.70;96.50
77582;DHT22;66726;52.388;9.986;2023-06-22T05:18:43;19.70;96.70
77582;DHT22;66726;52.388;9.986;2023-06-22T05:21:15;19.80;96.80
77582;DHT22;66726;52.388;9.986;2023-06-22T05:23:47;19.80;96.60
77582;DHT22;66726;52.388;9.986;2023-06-22T05:26:19;19.90;96.60
77582;DHT22;66726;52.388;9.986;2023-06-22T05:28:52;19.90;96.80
77582;DHT22;66726;52.388;9.986;2023-06-22T05:31:25;19.90;96.70
77582;DHT22;66726;52.388;9.986;2023-06-22T05:33:59;20.00;96.90
77582;DHT22;66726;52.388;9.986;2023-06-22T05:36:31;20.10;96.60
77582;DHT22;66726;52.388;9.986;2023-06-22T05:39:13;20.10;97.10
77582;DHT22;66726;52.388;9.986;2023-06-22T05:41:45;20.10;96.80
77582;DHT22;66726;52.388;9.986;2023-06-22T05:44:17;20.10;96.70
77582;DHT22;66726;52.388;9.986;2023-06-22T05:46:49;20.10;96.30
77582;DHT22;66726;52.388;9.986;2023-06-22T05:49:22;20.20;96.90
77582;DHT22;66726;52.388;9.986;2023-06-22T05:52:01;20.20;96.70
77582;DHT22;66726;52.388;9.986;2023-06-22T05:54:32;20.20;96.50
77582;DHT22;66726;52.388;9.986;2023-06-22T05:57:05;20.30;96.50
77582;DHT22;66726;52.388;9.986;2023-06-22T05:59:37;20.30;96.30
77582;DHT22;66726;52.388;9.986;2023-06-22T06:02:09;20.30;96.10
77582;DHT22;66726;52.388;9.986;2023-06-22T06:04:43;20.30;96.30
77582;DHT22;66726;52.388;9.986;2023-06-22T06:07:15;20.40;96.10
77582;DHT22;66726;52.388;9.986;2023-06-22T06:09:47;20.40;96.30
77582;DHT22;66726;52.388;9.986;2023-06-22T06:12:19;20.40;96.30
77582;DHT22;66726;52.388;9.986;2023-06-22T06:14:50;20.50;96.20
77582;DHT22;66726;52.388;9.986;2023-06-22T06:17:24;20.50;96.00
77582;DHT22;66726;52.388;9.986;2023-06-22T06:19:58;20.60;95.70
77582;DHT22;66726;52.388;9.986;2023-06-22T06:22:33;20.70;95.90
77582;DHT22;66726;52.388;9.986;2023-06-22T06:25:06;20.80;95.80
77582;DHT22;66726;52.388;9.986;2023-06-22T06:27:45;20.80;95.50
77582;DHT22;66726;52.388;9.986;2023-06-22T06:30:20;20.90;95.00
77582;DHT22;66726;52.388;9.986;2023-06-22T06:32:52;21.00;95.00
77582;DHT22;66726;52.388;9.986;2023-06-22T06:35:25;21.10;95.40
77582;DHT22;66726;52.388;9.986;2023-06-22T06:37:58;21.10;95.00
77582;DHT22;66726;52.388;9.986;2023-06-22T06:40:30;21.20;94.90
77582;DHT22;66726;52.388;9.986;2023-06-22T06:43:03;21.30;94.90
77582;DHT22;66726;52.388;9.986;2023-06-22T06:45:34;21.30;94.40
77582;DHT22;66726;52.388;9.986;2023-06-22T06:48:07;21.40;94.20
77582;DHT22;66726;52.388;9.986;2023-06-22T06:50:40;21.40;94.50
77582;DHT22;66726;52.388;9.986;2023-06-22T06:53:12;21.50;93.60
77582;DHT22;66726;52.388;9.986;2023-06-22T06:55:44;21.60;94.20
77582;DHT22;66726;52.388;9.986;2023-06-22T06:58:16;21.70;93.20
77582;DHT22;66726;52.388;9.986;2023-06-22T07:00:48;21.80;93.20
77582;DHT22;66726;52.388;9.986;2023-06-22T07:03:20;21.90;94.00
77582;DHT22;66726;52.388;9.986;2023-06-22T07:05:54;21.90;93.30
77582;DHT22;66726;52.388;9.986;2023-06-22T07:08:26;22.00;92.90
77582;DHT22;66726;52.388;9.986;2023-06-22T07:10:58;22.10;92.60
77582;DHT22;66726;52.388;9.986;2023-06-22T07:13:30;22.20;92.70
77582;DHT22;66726;52.388;9.986;2023-06-22T07:16:02;22.30;92.40
77582;DHT22;66726;52.388;9.986;2023-06-22T07:18:34;22.30;93.00
77582;DHT22;66726;52.388;9.986;2023-06-22T07:21:07;22.40;92.00
77582;DHT22;66726;52.388;9.986;2023-06-22T07:23:39;22.60;92.40
77582;DHT22;66726;52.388;9.986;2023-06-22T07:26:11;22.70;92.10
77582;DHT22;66726;52.388;9.986;2023-06-22T07:28:44;22.70;92.00
77582;DHT22;66726;52.388;9.986;2023-06-22T07:31:16;22.70;92.50
77582;DHT22;66726;52.388;9.986;2023-06-22T07:33:49;22.80;92.50
77582;DHT22;66726;52.388;9.986;2023-06-22T07:36:23;22.80;92.00
77582;DHT22;66726;52.388;9.986;2023-06-22T07:38:55;23.00;91.50
77582;DHT22;66726;52.388;9.986;2023-06-22T07:41:27;22.90;91.40
77582;DHT22;66726;52.388;9.986;2023-06-22T07:43:59;22.80;91.40
77582;DHT22;66726;52.388;9.986;2023-06-22T07:46:31;22.80;91.70
77582;DHT22;66726;52.388;9.986;2023-06-22T07:49:03;22.80;91.70
77582;DHT22;66726;52.388;9.986;2023-06-22T07:51:39;22.90;91.70
77582;DHT22;66726;52.388;9.986;2023-06-22T07:54:12;22.90;92.00
77582;DHT22;66726;52.388;9.986;2023-06-22T07:56:45;23.00;92.00
77582;DHT22;66726;52.388;9.986;2023-06-22T07:59:17;23.00;91.70
77582;DHT22;66726;52.388;9.986;2023-06-22T08:01:49;23.10;91.50
77582;DHT22;66726;52.388;9.986;2023-06-22T08:04:21;23.20;91.40
77582;DHT22;66726;52.388;9.986;2023-06-22T08:06:55;23.20;91.30
77582;DHT22;66726;52.388;9.986;2023-06-22T08:09:27;23.20;91.00
77582;DHT22;66726;52.388;9.986;2023-06-22T08:12:00;23.20;90.90
77582;DHT22;66726;52.388;9.986;2023-06-22T08:14:32;23.20;91.40
77582;DHT22;66726;52.388;9.986;2023-06-22T08:17:05;23.20;91.10
77582;DHT22;66726;52.388;9.986;2023-06-22T08:19:39;23.20;91.50
77582;DHT22;66726;52.388;9.986;2023-06-22T08:22:12;23.30;91.20
77582;DHT22;66726;52.388;9.986;2023-06-22T08:24:45;23.30;91.10
77582;DHT22;66726;52.388;9.986;2023-06-22T08:27:17;23.30;91.10
77582;DHT22;66726;52.388;9.986;2023-06-22T08:29:52;23.40;91.30
77582;DHT22;66726;52.388;9.986;2023-06-22T08:32:29;23.50;90.90
77582;DHT22;66726;52.388;9.986;2023-06-22T08:35:02;23.50;91.20
77582;DHT22;66726;52.388;9.986;2023-06-22T08:37:38;23.50;90.80
77582;DHT22;66726;52.388;9.986;2023-06-22T08:40:12;23.50;91.00
77582;DHT22;66726;52.388;9.986;2023-06-22T08:42:44;23.50;90.80
77582;DHT22;66726;52.388;9.986;2023-06-22T08:45:16;23.60;91.40
77582;DHT22;66726;52.388;9.986;2023-06-22T08:47:50;23.60;91.00
77582;DHT22;66726;52.388;9.986;2023-06-22T08:50:22;23.60;90.90
77582;DHT22;66726;52.388;9.986;2023-06-22T08:52:55;23.60;90.90
77582;DHT22;66726;52.388;9.986;2023-06-22T08:55:27;23.70;90.70
77582;DHT22;66726;52.388;9.986;2023-06-22T08:57:59;23.80;90.80
77582;DHT22;66726;52.388;9.986;2023-06-22T09:00:33;23.80;90.90
77582;DHT22;66726;52.388;9.986;2023-06-22T09:03:07;23.80;90.70
77582;DHT22;66726;52.388;9.986;2023-06-22T09:05:40;23.90;90.80
77582;DHT22;66726;52.388;9.986;2023-06-22T09:08:13;23.90;90.80
77582;DHT22;66726;52.388;9.986;2023-06-22T09:10:45;23.90;90.60
77582;DHT22;66726;52.388;9.986;2023-06-22T09:13:17;23.90;91.00
77582;DHT22;66726;52.388;9.986;2023-06-22T09:15:50;23.90;90.50
77582;DHT22;66726;52.388;9.986;2023-06-22T09:18:22;23.90;90.60
77582;DHT22;66726;52.388;9.986;2023-06-22T09:20:54;24.00;90.90
77582;DHT22;66726;52.388;9.986;2023-06-22T09:23:27;24.10;90.70
77582;DHT22;66726;52.388;9.986;2023-06-22T09:26:01;24.10;91.00
77582;DHT22;66726;52.388;9.986;2023-06-22T09:28:33;24.20;90.10
77582;DHT22;66726;52.388;9.986;2023-06-22T09:31:05;24.30;90.30
77582;DHT22;66726;52.388;9.986;2023-06-22T09:33:37;24.40;90.60
77582;DHT22;66726;52.388;9.986;2023-06-22T09:36:09;24.60;90.50
77582;DHT22;66726;52.388;9.986;2023-06-22T09:38:43;24.70;89.30
77582;DHT22;66726;52.388;9.986;2023-06-22T09:41:14;24.80;89.70
77582;DHT22;66726;52.388;9.986;2023-06-22T09:43:46;24.90;88.50
77582;DHT22;66726;52.388;9.986;2023-06-22T09:46:18;24.90;90.20
77582;DHT22;66726;52.388;9.986;2023-06-22T09:48:53;25.00;89.00
77582;DHT22;66726;52.388;9.986;2023-06-22T09:51:25;25.00;87.80
77582;DHT22;66726;52.388;9.986;2023-06-22T09:53:58;25.00;89.30
77582;DHT22;66726;52.388;9.986;2023-06-22T09:56:30;25.00;87.90
77582;DHT22;66726;52.388;9.986;2023-06-22T09:59:02;24.90;87.50
77582;DHT22;66726;52.388;9.986;2023-06-22T10:01:46;25.00;88.30
77582;DHT22;66726;52.388;9.986;2023-06-22T10:04:18;25.00;88.60
77582;DHT22;66726;52.388;9.986;2023-06-22T10:06:50;25.10;87.30
77582;DHT22;66726;52.388;9.986;2023-06-22T10:09:23;25.20;86.90
77582;DHT22;66726;52.388;9.986;2023-06-22T10:11:55;25.30;86.60
77582;DHT22;66726;52.388;9.986;2023-06-22T10:14:27;25.40;87.50
77582;DHT22;66726;52.388;9.986;2023-06-22T10:16:59;25.50;85.60
77582;DHT22;66726;52.388;9.986;2023-06-22T10:19:32;25.60;87.80
77582;DHT22;66726;52.388;9.986;2023-06-22T10:22:06;25.60;86.70
77582;DHT22;66726;52.388;9.986;2023-06-22T10:24:39;25.70;86.00
77582;DHT22;66726;52.388;9.986;2023-06-22T10:27:13;25.90;86.40
77582;DHT22;66726;52.388;9.986;2023-06-22T10:29:44;26.00;83.90
77582;DHT22;66726;52.388;9.986;2023-06-22T10:32:16;25.90;84.30
77582;DHT22;66726;52.388;9.986;2023-06-22T10:34:48;26.00;86.20
77582;DHT22;66726;52.388;9.986;2023-06-22T10:37:20;26.00;85.20
77582;DHT22;66726;52.388;9.986;2023-06-22T10:39:54;26.10;84.60
77582;DHT22;66726;52.388;9.986;2023-06-22T10:42:26;26.00;83.80
77582;DHT22;66726;52.388;9.986;2023-06-22T10:44:58;26.00;84.40
77582;DHT22;66726;52.388;9.986;2023-06-22T10:47:30;25.90;84.10
77582;DHT22;66726;52.388;9.986;2023-06-22T10:50:03;26.00;83.70
77582;DHT22;66726;52.388;9.986;2023-06-22T10:52:36;26.10;83.90
77582;DHT22;66726;52.388;9.986;2023-06-22T10:55:10;26.20;84.20
77582;DHT22;66726;52.388;9.986;2023-06-22T10:57:42;26.20;84.10
77582;DHT22;66726;52.388;9.986;2023-06-22T11:00:17;26.30;83.30
77582;DHT22;66726;52.388;9.986;2023-06-22T11:02:49;26.40;84.20
77582;DHT22;66726;52.388;9.986;2023-06-22T11:05:21;26.50;83.70
77582;DHT22;66726;52.388;9.986;2023-06-22T11:07:54;26.50;82.60
77582;DHT22;66726;52.388;9.986;2023-06-22T11:10:27;26.60;83.10
77582;DHT22;66726;52.388;9.986;2023-06-22T11:12:59;26.70;82.30
77582;DHT22;66726;52.388;9.986;2023-06-22T11:15:32;26.70;81.20
77582;DHT22;66726;52.388;9.986;2023-06-22T11:18:07;26.70;82.90
77582;DHT22;66726;52.388;9.986;2023-06-22T11:20:39;26.70;82.10
77582;DHT22;66726;52.388;9.986;2023-06-22T11:23:11;26.70;81.80
77582;DHT22;66726;52.388;9.986;2023-06-22T11:25:44;26.80;82.70
77582;DHT22;66726;52.388;9.986;2023-06-22T11:28:16;26.70;80.50
77582;DHT22;66726;52.388;9.986;2023-06-22T11:30:48;26.80;81.90
77582;DHT22;66726;52.388;9.986;2023-06-22T11:33:21;26.90;82.00
77582;DHT22;66726;52.388;9.986;2023-06-22T11:35:53;27.00;80.50
77582;DHT22;66726;52.388;9.986;2023-06-22T11:38:25;27.00;80.50
77582;DHT22;66726;52.388;9.986;2023-06-22T11:41:00;27.00;80.00
77582;DHT22;66726;52.388;9.986;2023-06-22T11:43:31;26.90;80.60
77582;DHT22;66726;52.388;9.986;2023-06-22T11:46:04;27.10;81.00
77582;DHT22;66726;52.388;9.986;2023-06-22T11:48:36;27.10;81.10
77582;DHT22;66726;52.388;9.986;2023-06-22T11:51:08;27.20;80.50
77582;DHT22;66726;52.388;9.986;2023-06-22T11:53:40;27.40;80.70
77582;DHT22;66726;52.388;9.986;2023-06-22T11:56:13;27.70;79.80
77582;DHT22;66726;52.388;9.986;2023-06-22T11:58:45;27.90;79.50
77582;DHT22;66726;52.388;9.986;2023-06-22T12:01:17;28.00;78.90
77582;DHT22;66726;52.388;9.986;2023-06-22T12:03:49;28.20;80.40
77582;DHT22;66726;52.388;9.986;2023-06-22T12:06:21;28.30;79.00
77582;DHT22;66726;52.388;9.986;2023-06-22T12:08:53;28.50;77.80
77582;DHT22;66726;52.388;9.986;2023-06-22T12:11:26;28.40;77.90
77582;DHT22;66726;52.388;9.986;2023-06-22T12:13:58;28.50;78.60
77582;DHT22;66726;52.388;9.986;2023-06-22T12:16:31;28.70;77.40
77582;DHT22;66726;52.388;9.986;2023-06-22T12:19:03;28.80;75.90
77582;DHT22;66726;52.388;9.986;2023-06-22T12:21:36;29.00;76.00
77582;DHT22;66726;52.388;9.986;2023-06-22T12:24:09;28.90;76.60
77582;DHT22;66726;52.388;9.986;2023-06-22T12:26:42;29.00;74.70
77582;DHT22;66726;52.388;9.986;2023-06-22T12:29:14;29.20;74.90
77582;DHT22;66726;52.388;9.986;2023-06-22T12:31:46;29.20;74.00
77582;DHT22;66726;52.388;9.986;2023-06-22T12:34:18;29.20;73.80
77582;DHT22;66726;52.388;9.986;2023-06-22T12:36:50;29.20;71.90
77582;DHT22;66726;52.388;9.986;2023-06-22T12:39:23;29.10;73.40
77582;DHT22;66726;52.388;9.986;2023-06-22T12:41:56;29.10;73.50
77582;DHT22;66726;52.388;9.986;2023-06-22T12:44:28;29.10;72.60
77582;DHT22;66726;52.388;9.986;2023-06-22T12:46:59;29.00;70.90
77582;DHT22;66726;52.388;9.986;2023-06-22T12:49:31;29.00;71.50
77582;DHT22;66726;52.388;9.986;2023-06-22T12:52:08;29.00;72.10
77582;DHT22;66726;52.388;9.986;2023-06-22T12:54:40;28.90;71.50
77582;DHT22;66726;52.388;9.986;2023-06-22T12:57:24;29.00;72.10
77582;DHT22;66726;52.388;9.986;2023-06-22T12:59:56;29.00;72.10
77582;DHT22;66726;52.388;9.986;2023-06-22T13:02:29;29.00;72.50
77582;DHT22;66726;52.388;9.986;2023-06-22T13:05:01;28.90;71.20
77582;DHT22;66726;52.388;9.986;2023-06-22T13:07:33;28.90;71.00
77582;DHT22;66726;52.388;9.986;2023-06-22T13:10:07;28.90;71.20
77582;DHT22;66726;52.388;9.986;2023-06-22T13:12:40;28.90;70.70
77582;DHT22;66726;52.388;9.986;2023-06-22T13:15:12;28.80;71.20
77582;DHT22;66726;52.388;9.986;2023-06-22T13:17:44;28.80;71.30
77582;DHT22;66726;52.388;9.986;2023-06-22T13:20:16;28.80;71.60
77582;DHT22;66726;52.388;9.986;2023-06-22T13:22:48;28.80;74.00
77582;DHT22;66726;52.388;9.986;2023-06-22T13:25:20;28.70;78.70
77582;DHT22;66726;52.388;9.986;2023-06-22T13:27:56;28.50;79.30
77582;DHT22;66726;52.388;9.986;2023-06-22T13:30:30;28.50;80.90
77582;DHT22;66726;52.388;9.986;2023-06-22T13:33:02;28.50;80.90
77582;DHT22;66726;52.388;9.986;2023-06-22T13:35:34;28.40;82.60
77582;DHT22;66726;52.388;9.986;2023-06-22T13:38:06;28.40;85.30
77582;DHT22;66726;52.388;9.986;2023-06-22T13:40:38;28.40;84.80
77582;DHT22;66726;52.388;9.986;2023-06-22T13:43:11;28.30;85.20
77582;DHT22;66726;52.388;9.986;2023-06-22T13:45:44;28.40;85.20
77582;DHT22;66726;52.388;9.986;2023-06-22T13:48:16;28.30;83.40
77582;DHT22;66726;52.388;9.986;2023-06-22T13:50:48;28.30;81.80
77582;DHT22;66726;52.388;9.986;2023-06-22T13:53:20;28.20;82.90
77582;DHT22;66726;52.388;9.986;2023-06-22T13:55:52;28.20;81.40
77582;DHT22;66726;52.388;9.986;2023-06-22T13:58:25;28.20;82.50
77582;DHT22;66726;52.388;9.986;2023-06-22T14:00:57;28.20;82.00
77582;DHT22;66726;52.388;9.986;2023-06-22T14:03:29;28.20;82.40
77582;DHT22;66726;52.388;9.986;2023-06-22T14:06:00;28.20;82.00
77582;DHT22;66726;52.388;9.986;2023-06-22T14:08:32;28.00;82.00
77582;DHT22;66726;52.388;9.986;2023-06-22T14:11:09;27.90;82.40
77582;DHT22;66726;52.388;9.986;2023-06-22T14:13:43;27.90;82.10
77582;DHT22;66726;52.388;9.986;2023-06-22T14:16:15;27.90;81.60
77582;DHT22;66726;52.388;9.986;2023-06-22T14:18:47;27.80;83.30
77582;DHT22;66726;52.388;9.986;2023-06-22T14:21:20;27.60;84.00
77582;DHT22;66726;52.388;9.986;2023-06-22T14:23:52;27.50;86.30
77582;DHT22;66726;52.388;9.986;2023-06-22T14:26:24;27.30;85.70
77582;DHT22;66726;52.388;9.986;2023-06-22T14:28:57;27.00;87.70
77582;DHT22;66726;52.388;9.986;2023-06-22T14:31:29;27.00;89.80
77582;DHT22;66726;52.388;9.986;2023-06-22T14:34:02;26.80;90.90
77582;DHT22;66726;52.388;9.986;2023-06-22T14:36:34;26.80;91.40
77582;DHT22;66726;52.388;9.986;2023-06-22T14:39:06;26.80;91.00
77582;DHT22;66726;52.388;9.986;2023-06-22T14:41:38;26.70;91.20
77582;DHT22;66726;52.388;9.986;2023-06-22T14:44:12;26.70;91.30
77582;DHT22;66726;52.388;9.986;2023-06-22T14:46:44;26.70;91.00
77582;DHT22;66726;52.388;9.986;2023-06-22T14:49:16;26.70;91.40
77582;DHT22;66726;52.388;9.986;2023-06-22T14:51:50;26.80;91.10
77582;DHT22;66726;52.388;9.986;2023-06-22T14:54:22;26.90;90.70
77582;DHT22;66726;52.388;9.986;2023-06-22T14:56:54;26.90;90.00
77582;DHT22;66726;52.388;9.986;2023-06-22T14:59:27;26.80;90.50
77582;DHT22;66726;52.388;9.986;2023-06-22T15:01:59;26.70;90.20
77582;DHT22;66726;52.388;9.986;2023-06-22T15:04:31;26.70;90.10
77582;DHT22;66726;52.388;9.986;2023-06-22T15:07:03;26.70;89.80
77582;DHT22;66726;52.388;9.986;2023-06-22T15:09:36;26.50;89.80
77582;DHT22;66726;52.388;9.986;2023-06-22T15:12:11;26.50;89.80
77582;DHT22;66726;52.388;9.986;2023-06-22T15:14:44;26.50;90.00
77582;DHT22;66726;52.388;9.986;2023-06-22T15:17:16;26.40;89.50
77582;DHT22;66726;52.388;9.986;2023-06-22T15:19:47;26.30;89.20
77582;DHT22;66726;52.388;9.986;2023-06-22T15:22:19;26.20;89.20
77582;DHT22;66726;52.388;9.986;2023-06-22T15:24:51;26.10;89.30
77582;DHT22;66726;52.388;9.986;2023-06-22T15:27:26;26.10;89.20
77582;DHT22;66726;52.388;9.986;2023-06-22T15:30:00;26.00;89.30
77582;DHT22;66726;52.388;9.986;2023-06-22T15:32:32;26.00;89.00
77582;DHT22;66726;52.388;9.986;2023-06-22T15:35:05;25.90;88.50
77582;DHT22;66726;52.388;9.986;2023-06-22T15:37:38;25.90;88.40
77582;DHT22;66726;52.388;9.986;2023-06-22T15:40:11;25.80;88.30
77582;DHT22;66726;52.388;9.986;2023-06-22T15:42:44;25.80;89.30
77582;DHT22;66726;52.388;9.986;2023-06-22T15:45:20;25.80;89.70
77582;DHT22;66726;52.388;9.986;2023-06-22T15:47:52;25.60;90.30
77582;DHT22;66726;52.388;9.986;2023-06-22T15:50:24;25.50;91.20
77582;DHT22;66726;52.388;9.986;2023-06-22T15:52:56;25.40;93.00
77582;DHT22;66726;52.388;9.986;2023-06-22T15:55:28;25.10;92.70
77582;DHT22;66726;52.388;9.986;2023-06-22T15:58:00;25.00;93.00
77582;DHT22;66726;52.388;9.986;2023-06-22T16:00:33;24.40;93.90
77582;DHT22;66726;52.388;9.986;2023-06-22T16:03:05;24.00;94.80
77582;DHT22;66726;52.388;9.986;2023-06-22T16:05:37;23.80;94.90